LIBDLIBC

Guest
Details From LIBD - Bari Palese Macchie
To LIBC - CROTONE
Flight Number -
Tags generated
Created
Modified
Stats Distance 131 nm / 242 km
Max Altitude 14,000 ft / 4,267 m
Waypoints 3
Social Downloads 4
Likes 0
Share VATSIM

Download

Looking for another format? Having issues loading an existing format? Contact us
Advertisement - Login to hide

Notes

Basic altitude profile: - Ascent Rate: 2500ft/min - Ascent Speed: 250kts - Cruise Altitude: 35000ft - Cruise Speed: 420kts - Descent Rate: 1500ft/min - Descent Speed: 250kts Options: - Use NATs: yes - Use PACOTS: yes - Use low airways: yes - Use high airways: yes

Route

LIBD SIRGI LIBC

ID Type Via Altitude Latitude Longitude Leg Dist Tot Dist Heading (true) Name
O LIBD APT - 0 ft / 0 m 41.13787˚ 16.75832˚ - 0 nm - Bari Palese Macchie
SIRGI FIX - 14,000 ft / 4,267 m 40.13056˚ 16.70361˚ 60 nm 60 nm 182° / 182° -
O LIBC APT - 0 ft / 0 m 38.99722˚ 17.08017˚ 70 nm 130 nm 166° / 166° CROTONE

Altitude Profile

Advertisement - Login to hide

LIBD

Details ICAO LIBD (BRI)
Name Bari Palese Macchie
Region Italy
Timezone Europe/Rome (UTC+2.0)
Stats Elevation 177 ft / 54 m (AMSL)
Location 41.137865° 16.758318°
Runways 1
Magnetic Variation 3.783° E

METAR

LIBD 261550Z 01008KT 320V050 CAVOK 24/17 Q1017

Decode

TAF

TAF LIBD 261100Z 2612/2712 02012KT CAVOK BECMG 2617/2619 VRB05KT BECMG 2708/2710 02010KT

Decode

Departure Runways

ID Width Length Bearing (true) Bearing (mag) Surface Threshold Offset Overrun Length
07 148 ft / 45 m 9,262 ft / 2,823 m 69.39° 65.61° Asphalt 1,257 ft / 383 m 0 ft / 0 m
25 148 ft / 45 m 9,262 ft / 2,823 m 249.42° 245.64° Asphalt 0 ft / 0 m 194 ft / 59 m

LIBC

Details ICAO LIBC (CRV)
Name CROTONE
Region Italy
Timezone Europe/Rome (UTC+2.0)
Stats Elevation 521 ft / 159 m (AMSL)
Location 38.997223° 17.080170°
Runways 1
Magnetic Variation 3.672° E

METAR

LIBC 261450Z 03009KT 360V080 CAVOK 27/15 Q1017

Decode

TAF

TAF LIBC 261100Z 2612/2712 02012KT CAVOK BECMG 2617/2619 VRB05KT BECMG 2708/2710 02010KT

Decode

Destination Runways

ID Width Length Bearing (true) Bearing (mag) Surface Threshold Offset Overrun Length
17 148 ft / 45 m 6,572 ft / 2,003 m 168.92° 165.25° Asphalt 525 ft / 160 m 0 ft / 0 m
35 148 ft / 45 m 6,572 ft / 2,003 m 348.92° 345.25° Asphalt 0 ft / 0 m 0 ft / 0 m

Popular Alternatives